createdAt,value
2022-10-08T00:01:22.092Z,11.30
2022-10-08T00:03:53.253Z,11.00
2022-10-08T00:06:31.238Z,11.30
2022-10-08T00:09:07.291Z,11.20
2022-10-08T00:11:40.188Z,11.70
2022-10-08T00:14:09.481Z,11.20
2022-10-08T00:16:41.827Z,11.80
2022-10-08T00:19:15.565Z,11.60
2022-10-08T00:21:45.368Z,11.00
2022-10-08T00:24:18.365Z,11.20
2022-10-08T00:26:45.669Z,11.50
2022-10-08T00:29:15.831Z,10.70
2022-10-08T00:31:46.027Z,11.10
2022-10-08T00:34:18.727Z,12.00
2022-10-08T00:36:47.474Z,11.20
2022-10-08T00:39:20.231Z,11.10
2022-10-08T00:41:54.606Z,11.80
2022-10-08T00:44:59.980Z,11.90
2022-10-08T00:47:33.093Z,10.90
2022-10-08T00:50:00.113Z,11.00
2022-10-08T00:52:35.042Z,11.10
2022-10-08T00:55:08.101Z,11.40
2022-10-08T00:57:37.761Z,11.50
2022-10-08T01:00:10.642Z,11.30
2022-10-08T01:02:37.942Z,11.60
2022-10-08T01:05:07.344Z,11.60
2022-10-08T01:07:48.271Z,10.60
2022-10-08T01:10:41.135Z,12.10
2022-10-08T01:13:39.481Z,10.60
2022-10-08T01:16:34.965Z,10.70
2022-10-08T01:19:20.892Z,10.70
2022-10-08T01:22:25.837Z,10.70
2022-10-08T01:25:18.688Z,10.90
2022-10-08T01:28:25.446Z,10.60
2022-10-08T01:31:05.675Z,11.20
2022-10-08T01:33:45.591Z,10.00
2022-10-08T01:36:15.932Z,11.00
2022-10-08T01:38:50.772Z,10.40
2022-10-08T01:41:20.415Z,10.40
2022-10-08T01:44:36.334Z,10.40
2022-10-08T01:47:10.086Z,10.80
2022-10-08T01:49:58.016Z,10.80
2022-10-08T01:52:32.699Z,10.40
2022-10-08T01:55:10.254Z,10.90
2022-10-08T01:57:40.314Z,9.60
2022-10-08T02:00:12.615Z,11.10
2022-10-08T02:02:42.108Z,10.20
2022-10-08T02:05:11.394Z,10.40
2022-10-08T02:07:42.569Z,10.60
2022-10-08T02:10:17.032Z,10.10
2022-10-08T02:12:45.737Z,10.20
2022-10-08T02:15:28.198Z,10.60
2022-10-08T02:18:13.693Z,9.40
2022-10-08T02:20:56.615Z,9.90
2022-10-08T02:23:38.092Z,10.30
2022-10-08T02:26:20.308Z,10.00
2022-10-08T02:29:25.914Z,9.60
2022-10-08T02:32:30.111Z,10.50
2022-10-08T02:35:33.733Z,11.40
2022-10-08T02:38:12.052Z,9.60
2022-10-08T02:40:45.649Z,9.70
2022-10-08T02:43:22.126Z,9.60
2022-10-08T02:46:17.349Z,10.40
2022-10-08T02:49:02.879Z,9.70
2022-10-08T02:51:35.358Z,10.10
2022-10-08T02:54:06.256Z,8.80
2022-10-08T02:56:46.878Z,9.00
2022-10-08T02:59:18.163Z,9.50
2022-10-08T03:02:02.703Z,9.10
2022-10-08T03:04:38.569Z,9.70
2022-10-08T03:07:06.808Z,10.00
2022-10-08T03:09:41.113Z,9.60
2022-10-08T03:12:08.574Z,9.50
2022-10-08T03:14:42.085Z,8.90
2022-10-08T03:17:14.163Z,10.10
2022-10-08T03:22:08.998Z,9.00
2022-10-08T03:24:36.748Z,9.20
2022-10-08T03:27:04.723Z,9.60
2022-10-08T03:29:32.049Z,9.80
2022-10-08T03:34:28.115Z,9.20
2022-10-08T03:39:22.974Z,9.90
2022-10-08T03:41:50.138Z,10.20
2022-10-08T03:44:17.288Z,9.40
2022-10-08T03:46:44.387Z,9.80
2022-10-08T03:49:11.599Z,9.60
2022-10-08T03:51:38.705Z,9.70
2022-10-08T03:54:05.836Z,9.80
2022-10-08T03:59:01.209Z,9.00
2022-10-08T04:01:30.134Z,9.30
2022-10-08T04:03:57.260Z,9.40
2022-10-08T04:06:24.517Z,9.60
2022-10-08T04:08:51.925Z,8.40
2022-10-08T04:11:20.180Z,8.60
2022-10-08T04:16:18.786Z,8.90
2022-10-08T04:18:47.646Z,9.00
2022-10-08T04:21:18.862Z,8.50
2022-10-08T04:26:15.071Z,9.10
2022-10-08T04:28:45.155Z,8.70
2022-10-08T04:31:17.465Z,8.90
2022-10-08T04:33:46.754Z,8.70
2022-10-08T04:36:18.754Z,8.60
2022-10-08T04:38:46.926Z,9.50
2022-10-08T04:41:18.176Z,9.30
2022-10-08T04:43:47.264Z,9.60
2022-10-08T04:46:18.148Z,8.40
2022-10-08T04:48:55.625Z,8.40
2022-10-08T04:51:25.924Z,8.60
2022-10-08T04:53:54.958Z,8.50
2022-10-08T04:56:26.709Z,8.90
2022-10-08T04:58:57.788Z,8.20
2022-10-08T05:01:27.033Z,8.40
2022-10-08T05:03:56.982Z,9.10
2022-10-08T05:06:28.239Z,8.50
2022-10-08T05:08:56.817Z,8.50
2022-10-08T05:11:26.292Z,8.60
2022-10-08T05:13:56.105Z,8.70
2022-10-08T05:16:24.721Z,9.10
2022-10-08T05:18:52.689Z,8.60
2022-10-08T05:21:23.998Z,8.50
2022-10-08T05:24:01.002Z,9.80
2022-10-08T05:27:01.948Z,9.10
2022-10-08T05:29:19.847Z,10.80
2022-10-08T05:31:47.266Z,9.60
2022-10-08T05:34:15.603Z,10.20
2022-10-08T05:36:43.766Z,9.90
2022-10-08T05:39:11.411Z,9.40
2022-10-08T05:41:39.153Z,11.20
2022-10-08T05:44:08.285Z,11.30
2022-10-08T05:46:38.059Z,11.00
2022-10-08T05:49:08.917Z,10.50
2022-10-08T05:51:38.577Z,11.00
2022-10-08T05:54:06.345Z,12.00
2022-10-08T05:56:33.771Z,11.80
2022-10-08T05:59:01.209Z,12.40
2022-10-08T06:01:32.446Z,12.20
2022-10-08T06:04:09.016Z,13.30
2022-10-08T06:06:43.200Z,13.10
2022-10-08T06:09:15.430Z,14.10
2022-10-08T06:11:43.243Z,13.00
2022-10-08T06:14:13.726Z,13.00
2022-10-08T06:16:41.468Z,13.40
2022-10-08T06:19:09.642Z,14.60
2022-10-08T06:21:37.633Z,14.30
2022-10-08T06:24:08.737Z,14.40
2022-10-08T06:26:40.198Z,14.10
2022-10-08T06:29:12.781Z,14.00
2022-10-08T06:31:40.179Z,14.60
2022-10-08T06:34:07.528Z,14.30
2022-10-08T06:36:37.726Z,12.90
2022-10-08T06:39:14.795Z,14.30
2022-10-08T06:41:42.789Z,13.70
2022-10-08T06:44:14.505Z,13.30
2022-10-08T06:46:42.822Z,15.30
2022-10-08T06:49:11.651Z,14.60
2022-10-08T06:51:38.816Z,14.30
2022-10-08T06:54:08.165Z,14.50
2022-10-08T06:56:38.243Z,14.50
2022-10-08T06:59:07.645Z,14.70
2022-10-08T07:01:36.056Z,14.70
2022-10-08T07:04:05.594Z,15.40
2022-10-08T07:06:32.968Z,14.00
2022-10-08T07:09:02.334Z,16.10
2022-10-08T07:11:33.595Z,16.80
2022-10-08T07:14:00.968Z,17.40
2022-10-08T07:16:29.268Z,16.20
2022-10-08T07:18:58.735Z,17.50
2022-10-08T07:21:27.857Z,17.00
2022-10-08T07:26:26.752Z,17.50
2022-10-08T07:29:01.338Z,16.40
2022-10-08T07:31:33.065Z,18.40
2022-10-08T07:34:03.618Z,17.00
2022-10-08T07:36:31.071Z,17.50
2022-10-08T07:39:06.515Z,18.10
2022-10-08T07:41:34.446Z,17.30
2022-10-08T07:44:04.229Z,17.00
2022-10-08T07:46:35.506Z,18.20
2022-10-08T07:49:04.938Z,17.50
2022-10-08T07:51:34.891Z,17.40
2022-10-08T07:54:05.057Z,18.00
2022-10-08T07:56:33.578Z,19.00
2022-10-08T07:59:02.661Z,18.90
2022-10-08T08:01:31.714Z,19.50
2022-10-08T08:04:08.366Z,20.60
2022-10-08T08:06:42.439Z,22.70
2022-10-08T08:09:10.842Z,23.30
2022-10-08T08:11:38.374Z,24.00
2022-10-08T08:14:05.825Z,24.20
2022-10-08T08:16:34.413Z,25.20
2022-10-08T08:19:02.462Z,24.90
2022-10-08T08:21:33.760Z,24.80
2022-10-08T08:24:10.866Z,25.10
2022-10-08T08:26:43.031Z,26.70
2022-10-08T08:29:18.898Z,27.80
2022-10-08T08:31:49.314Z,27.40
2022-10-08T08:34:24.451Z,27.50
2022-10-08T08:36:53.964Z,27.30
2022-10-08T08:39:31.164Z,26.60
2022-10-08T08:42:35.152Z,27.30
2022-10-08T08:45:51.885Z,27.30
2022-10-08T08:48:26.762Z,27.70
2022-10-08T08:50:58.821Z,27.30
2022-10-08T08:53:26.846Z,26.40
2022-10-08T08:56:00.900Z,26.60
2022-10-08T08:59:21.305Z,27.30
2022-10-08T09:01:49.713Z,27.50
2022-10-08T09:04:45.684Z,27.50
2022-10-08T09:07:21.074Z,27.70
2022-10-08T09:09:52.997Z,27.20
2022-10-08T09:12:43.943Z,27.70
2022-10-08T09:15:17.171Z,27.60
2022-10-08T09:17:49.035Z,26.70
2022-10-08T09:20:21.405Z,26.90
2022-10-08T09:22:51.878Z,27.40
2022-10-08T09:25:26.667Z,27.70
2022-10-08T09:28:01.095Z,28.30
2022-10-08T09:30:38.781Z,28.30
2022-10-08T09:33:32.204Z,27.60
2022-10-08T09:35:59.721Z,28.80
2022-10-08T09:38:33.185Z,28.80
2022-10-08T09:41:20.541Z,27.70
2022-10-08T09:44:25.344Z,28.60
2022-10-08T09:47:06.700Z,27.30
2022-10-08T09:49:38.541Z,27.10
2022-10-08T09:52:19.899Z,27.10
2022-10-08T09:54:58.099Z,27.40
2022-10-08T09:57:25.320Z,28.70
2022-10-08T10:00:00.622Z,28.80
2022-10-08T10:05:24.558Z,28.20
2022-10-08T10:07:53.106Z,27.40
2022-10-08T10:13:09.521Z,28.50
2022-10-08T10:15:50.757Z,28.20
2022-10-08T10:18:32.418Z,27.70
2022-10-08T10:21:11.590Z,27.00
2022-10-08T10:24:02.397Z,28.20
2022-10-08T10:26:40.487Z,27.60
2022-10-08T10:29:21.143Z,28.20
2022-10-08T10:32:06.047Z,27.80
2022-10-08T10:34:39.844Z,27.40
2022-10-08T10:37:36.534Z,28.10
2022-10-08T10:40:36.384Z,28.00
2022-10-08T10:43:27.462Z,27.20
2022-10-08T10:46:16.647Z,26.50
2022-10-08T10:48:43.786Z,27.20
2022-10-08T10:51:28.907Z,27.10
2022-10-08T10:54:34.176Z,27.30
2022-10-08T10:57:44.047Z,28.60
2022-10-08T11:01:08.765Z,27.70
2022-10-08T11:04:10.202Z,28.00
2022-10-08T11:06:52.855Z,27.80
2022-10-08T11:09:55.496Z,27.20
2022-10-08T11:15:40.843Z,29.00
2022-10-08T11:18:54.287Z,27.80
2022-10-08T11:22:03.815Z,27.60
2022-10-08T11:27:53.722Z,28.10
2022-10-08T11:31:16.268Z,27.60
2022-10-08T11:33:45.732Z,29.30
2022-10-08T11:36:43.532Z,28.10
2022-10-08T11:39:28.303Z,28.10
2022-10-08T11:42:10.788Z,28.00
2022-10-08T11:47:43.247Z,26.40
2022-10-08T11:50:33.182Z,28.80
2022-10-08T11:53:18.996Z,28.80
2022-10-08T11:55:59.214Z,28.40
2022-10-08T11:58:31.250Z,27.10
2022-10-08T12:01:09.054Z,27.70
2022-10-08T12:03:43.393Z,27.60
2022-10-08T12:06:23.543Z,27.50
2022-10-08T12:08:56.796Z,26.80
2022-10-08T12:11:33.103Z,26.60
2022-10-08T12:14:14.841Z,26.40
2022-10-08T12:16:48.303Z,27.80
2022-10-08T12:19:36.472Z,27.60
2022-10-08T12:22:16.480Z,27.20
2022-10-08T12:24:50.732Z,26.80
2022-10-08T12:27:17.992Z,27.50
2022-10-08T12:30:13.908Z,27.30
2022-10-08T12:32:44.045Z,26.40
2022-10-08T12:35:36.465Z,26.90
2022-10-08T12:38:42.849Z,27.80
2022-10-08T12:41:47.389Z,25.80
2022-10-08T12:45:04.189Z,26.90
2022-10-08T12:47:56.736Z,27.50
2022-10-08T12:51:02.903Z,26.80
2022-10-08T12:56:00.047Z,27.50
2022-10-08T12:58:33.605Z,26.90
2022-10-08T13:01:05.591Z,25.70
2022-10-08T13:03:32.832Z,27.30
2022-10-08T13:06:17.914Z,25.10
2022-10-08T13:08:47.331Z,25.80
2022-10-08T13:11:16.147Z,26.10
2022-10-08T13:13:50.550Z,27.10
2022-10-08T13:16:23.794Z,25.90
2022-10-08T13:18:58.895Z,26.00
2022-10-08T13:21:32.277Z,25.80
2022-10-08T13:24:25.412Z,25.50
2022-10-08T13:26:55.670Z,26.10
2022-10-08T13:29:22.741Z,25.60
2022-10-08T13:32:13.998Z,25.40
2022-10-08T13:34:41.256Z,24.00
2022-10-08T13:37:23.341Z,25.50
2022-10-08T13:39:53.819Z,25.00
2022-10-08T13:42:25.234Z,24.80
2022-10-08T13:44:52.668Z,24.80
2022-10-08T13:47:22.422Z,24.60
2022-10-08T13:49:50.108Z,24.60
2022-10-08T13:52:22.102Z,25.00
2022-10-08T13:54:54.021Z,24.60
2022-10-08T13:59:48.747Z,24.60
2022-10-08T14:02:15.881Z,23.80
2022-10-08T14:07:30.364Z,25.00
2022-10-08T14:10:00.363Z,23.90
2022-10-08T14:12:32.543Z,23.90
2022-10-08T14:15:01.323Z,23.20
2022-10-08T14:17:28.531Z,21.80
2022-10-08T14:22:23.743Z,23.20
2022-10-08T14:24:51.816Z,21.70
2022-10-08T14:27:18.867Z,23.00
2022-10-08T14:29:46.062Z,22.80
2022-10-08T14:32:13.180Z,23.90
2022-10-08T14:42:04.885Z,23.00
2022-10-08T14:44:31.986Z,22.30
2022-10-08T14:46:59.128Z,23.60
2022-10-08T14:49:26.800Z,21.40
2022-10-08T14:51:53.979Z,22.20
2022-10-08T14:59:16.330Z,21.80
2022-10-08T15:01:43.616Z,22.30
2022-10-08T15:04:14.887Z,21.50
2022-10-08T15:06:42.848Z,22.60
2022-10-08T15:09:12.398Z,22.10
2022-10-08T15:11:39.717Z,21.10
2022-10-08T15:14:07.018Z,22.40
2022-10-08T15:16:34.722Z,21.40
2022-10-08T15:19:02.155Z,23.00
2022-10-08T15:23:57.180Z,21.20
2022-10-08T15:26:25.199Z,21.40
2022-10-08T15:28:53.704Z,21.30
2022-10-08T15:31:28.041Z,21.30
2022-10-08T15:36:30.939Z,21.20
2022-10-08T15:39:14.974Z,21.60
2022-10-08T15:41:45.933Z,21.10
2022-10-08T15:44:23.548Z,20.80
2022-10-08T15:47:06.133Z,20.90
2022-10-08T15:49:43.167Z,20.40
2022-10-08T15:52:17.126Z,20.80
2022-10-08T15:54:45.230Z,20.30
2022-10-08T15:57:16.705Z,21.40
2022-10-08T15:59:44.242Z,20.70
2022-10-08T16:02:17.085Z,19.50
2022-10-08T16:04:47.428Z,20.30
2022-10-08T16:07:14.973Z,20.80
2022-10-08T16:09:42.086Z,20.70
2022-10-08T16:14:37.074Z,20.20
2022-10-08T16:17:04.209Z,21.00
2022-10-08T16:21:58.947Z,19.60
2022-10-08T16:26:54.144Z,20.50
2022-10-08T16:29:21.329Z,19.60
2022-10-08T16:31:48.880Z,19.00
2022-10-08T16:34:20.862Z,19.50
2022-10-08T16:36:48.804Z,20.00
2022-10-08T16:39:20.622Z,18.80
2022-10-08T16:41:48.987Z,19.90
2022-10-08T16:44:20.581Z,19.40
2022-10-08T16:46:52.231Z,17.80
2022-10-08T16:49:26.705Z,19.00
2022-10-08T16:52:01.136Z,19.00
2022-10-08T16:54:29.369Z,18.90
2022-10-08T16:56:57.100Z,18.60
2022-10-08T16:59:27.764Z,18.30
2022-10-08T17:01:57.924Z,18.40
2022-10-08T17:04:28.272Z,17.90
2022-10-08T17:06:55.964Z,18.70
2022-10-08T17:09:23.901Z,18.80
2022-10-08T17:11:51.151Z,18.10
2022-10-08T17:14:18.477Z,18.50
2022-10-08T17:16:45.948Z,18.70
2022-10-08T17:21:41.252Z,17.80
2022-10-08T17:26:38.342Z,16.80
2022-10-08T17:29:09.357Z,17.90
2022-10-08T17:31:37.581Z,18.80
2022-10-08T17:34:05.629Z,17.80
2022-10-08T17:36:36.884Z,17.90
2022-10-08T17:39:07.046Z,17.30
2022-10-08T17:41:38.296Z,16.90
2022-10-08T17:44:08.665Z,16.90
2022-10-08T17:46:40.570Z,17.30
2022-10-08T17:49:08.535Z,17.00
2022-10-08T17:51:35.851Z,16.90
2022-10-08T17:54:07.537Z,16.60
2022-10-08T17:56:35.332Z,17.00
2022-10-08T17:59:03.088Z,18.00
2022-10-08T18:01:39.206Z,16.00
2022-10-08T18:04:12.157Z,16.40
2022-10-08T18:06:42.530Z,16.80
2022-10-08T18:09:18.767Z,16.90
2022-10-08T18:11:54.129Z,16.90
2022-10-08T18:14:22.548Z,17.00
2022-10-08T18:16:50.286Z,16.70
2022-10-08T18:19:19.583Z,17.00
2022-10-08T18:21:47.222Z,16.20
2022-10-08T18:24:16.491Z,16.60
2022-10-08T18:26:44.934Z,16.40
2022-10-08T18:29:14.704Z,16.40
2022-10-08T18:31:45.737Z,16.00
2022-10-08T18:34:18.394Z,16.70
2022-10-08T18:36:47.807Z,16.60
2022-10-08T18:39:20.741Z,17.00
2022-10-08T18:41:51.883Z,15.60
2022-10-08T18:44:25.069Z,16.20
2022-10-08T18:46:53.709Z,15.80
2022-10-08T18:49:30.767Z,16.90
2022-10-08T18:51:58.929Z,15.10
2022-10-08T18:54:26.524Z,15.30
2022-10-08T18:56:55.560Z,17.20
2022-10-08T18:59:23.973Z,15.30
2022-10-08T19:01:54.708Z,16.90
2022-10-08T19:04:25.467Z,17.20
2022-10-08T19:06:54.450Z,16.00
2022-10-08T19:09:23.285Z,15.90
2022-10-08T19:11:59.107Z,15.30
2022-10-08T19:14:28.290Z,15.20
2022-10-08T19:16:56.581Z,15.00
2022-10-08T19:19:29.998Z,16.90
2022-10-08T19:22:00.810Z,17.00
2022-10-08T19:24:29.260Z,14.70
2022-10-08T19:26:57.617Z,15.40
2022-10-08T19:29:31.751Z,15.00
2022-10-08T19:31:59.240Z,15.80
2022-10-08T19:34:28.436Z,14.50
2022-10-08T19:39:30.256Z,15.00
2022-10-08T19:41:58.536Z,14.40
2022-10-08T19:44:26.196Z,15.60
2022-10-08T19:46:53.767Z,15.20
2022-10-08T19:49:21.974Z,15.40
2022-10-08T19:51:49.640Z,14.90
2022-10-08T19:54:17.130Z,14.80
2022-10-08T19:56:44.579Z,14.70
2022-10-08T19:59:13.242Z,14.60
2022-10-08T20:01:42.826Z,16.00
2022-10-08T20:04:11.954Z,15.30
2022-10-08T20:06:43.143Z,14.60
2022-10-08T20:09:13.439Z,14.00
2022-10-08T20:11:44.204Z,13.90
2022-10-08T20:14:14.065Z,14.40
2022-10-08T20:16:43.077Z,15.10
2022-10-08T20:19:20.862Z,15.40
2022-10-08T20:21:50.314Z,13.60
2022-10-08T20:24:18.793Z,14.80
2022-10-08T20:26:46.427Z,14.00
2022-10-08T20:29:27.435Z,14.00
2022-10-08T20:31:57.677Z,14.90
2022-10-08T20:34:30.987Z,14.00
2022-10-08T20:37:01.524Z,13.70
2022-10-08T20:39:29.469Z,14.10
2022-10-08T20:41:56.828Z,14.00
2022-10-08T20:44:24.121Z,14.60
2022-10-08T20:46:52.639Z,14.30
2022-10-08T20:49:26.210Z,13.20
2022-10-08T20:51:53.511Z,13.90
2022-10-08T20:54:20.719Z,13.70
2022-10-08T20:56:48.273Z,12.70
2022-10-08T20:59:18.233Z,13.50
2022-10-08T21:01:46.569Z,12.90
2022-10-08T21:04:14.468Z,12.60
2022-10-08T21:06:45.711Z,13.50
2022-10-08T21:09:15.603Z,15.10
2022-10-08T21:11:45.893Z,14.00
2022-10-08T21:14:21.462Z,13.40
2022-10-08T21:16:48.974Z,12.70
2022-10-08T21:19:22.117Z,14.50
2022-10-08T21:21:50.274Z,12.90
2022-10-08T21:24:17.462Z,13.90
2022-10-08T21:26:44.745Z,13.70
2022-10-08T21:29:14.332Z,13.50
2022-10-08T21:31:43.089Z,14.80
2022-10-08T21:34:13.047Z,13.40
2022-10-08T21:36:41.798Z,13.50
2022-10-08T21:39:14.972Z,13.30
2022-10-08T21:41:42.247Z,13.50
2022-10-08T21:44:09.473Z,13.60
2022-10-08T21:46:40.917Z,13.90
2022-10-08T21:49:24.340Z,13.60
2022-10-08T21:54:19.680Z,13.00
2022-10-08T21:56:46.856Z,13.60
2022-10-08T21:59:16.320Z,13.20
2022-10-08T22:01:47.409Z,13.30
2022-10-08T22:04:18.557Z,13.90
2022-10-08T22:06:53.325Z,14.00
2022-10-08T22:09:28.376Z,13.60
2022-10-08T22:11:57.345Z,13.40
2022-10-08T22:14:25.347Z,13.00
2022-10-08T22:16:52.753Z,12.70
2022-10-08T22:19:20.753Z,13.60
2022-10-08T22:21:48.234Z,13.20
2022-10-08T22:24:15.594Z,13.40
2022-10-08T22:26:46.542Z,13.80
2022-10-08T22:29:14.738Z,13.50
2022-10-08T22:31:42.063Z,14.10
2022-10-08T22:36:44.409Z,13.00
2022-10-08T22:41:39.783Z,12.80
2022-10-08T22:44:06.971Z,13.60
2022-10-08T22:46:40.054Z,13.60
2022-10-08T22:49:11.190Z,12.80
2022-10-08T22:51:39.581Z,13.30
2022-10-08T22:54:07.802Z,13.90
2022-10-08T22:56:35.574Z,13.30
2022-10-08T22:59:02.829Z,13.00
2022-10-08T23:01:31.007Z,12.50
2022-10-08T23:04:01.046Z,14.60
2022-10-08T23:06:35.106Z,13.60
2022-10-08T23:09:11.618Z,13.20
2022-10-08T23:11:39.101Z,13.30
2022-10-08T23:14:06.617Z,13.10
2022-10-08T23:16:35.150Z,13.60
2022-10-08T23:19:12.139Z,13.30
2022-10-08T23:21:42.483Z,13.80
2022-10-08T23:24:11.460Z,12.60
2022-10-08T23:26:38.517Z,13.70
2022-10-08T23:29:05.868Z,13.00
2022-10-08T23:31:36.303Z,13.30
2022-10-08T23:34:07.820Z,13.30
2022-10-08T23:36:43.779Z,14.40
2022-10-08T23:39:17.337Z,13.10
2022-10-08T23:41:44.498Z,14.20
2022-10-08T23:44:13.737Z,13.30
2022-10-08T23:46:40.882Z,13.50
2022-10-08T23:49:08.243Z,13.40
2022-10-08T23:51:36.289Z,12.80
2022-10-08T23:54:03.839Z,13.30
2022-10-08T23:56:31.433Z,13.00
2022-10-08T23:58:58.812Z,13.20
